Time;durP1;ratioP1;P1;durP2;ratioP2;P2;SDS_P1;SDS_P2;PMS_P1;PMS_P2;Temp;Humidity;BMP_temperature;BMP_pressure;BME280_temperature;BME280_humidity;BME280_pressure;Samples;Min_cycle;Max_cycle;Signal;HPM_P1;HPM_P2
2022/02/27 00:01:39;;;;;;;9.50;4.88;;;1.60;99.90;;;;;;5075379;28;20218;-71
2022/02/27 00:04:06;;;;;;;14.63;4.10;;;1.60;99.90;;;;;;5076916;28;20207;-71
2022/02/27 00:06:32;;;;;;;9.98;3.63;;;1.60;99.90;;;;;;5076567;28;20216;-71
2022/02/27 00:08:59;;;;;;;7.72;3.28;;;1.50;99.90;;;;;;5076263;28;20716;-71
2022/02/27 00:11:25;;;;;;;5.80;3.83;;;1.60;99.90;;;;;;5076644;28;20269;-71
2022/02/27 00:13:52;;;;;;;12.70;3.67;;;1.60;99.90;;;;;;5075613;28;20200;-69
2022/02/27 00:16:18;;;;;;;8.68;3.40;;;1.60;99.90;;;;;;5076136;28;20223;-70
2022/02/27 00:18:44;;;;;;;9.93;4.57;;;1.60;99.90;;;;;;5076350;28;20200;-69
2022/02/27 00:21:11;;;;;;;9.80;3.70;;;1.60;99.90;;;;;;5075939;28;20200;-69
2022/02/27 00:23:37;;;;;;;4.38;3.65;;;1.60;99.90;;;;;;5075997;28;20200;-69
2022/02/27 00:26:04;;;;;;;9.05;4.00;;;1.60;99.90;;;;;;5075551;28;20204;-69
2022/02/27 00:28:30;;;;;;;9.45;3.90;;;1.60;99.90;;;;;;5076194;28;20211;-69
2022/02/27 00:30:57;;;;;;;12.43;4.40;;;1.60;99.90;;;;;;5076382;28;20211;-71
2022/02/27 00:33:23;;;;;;;5.43;3.50;;;1.50;99.90;;;;;;5076147;28;20207;-70
2022/02/27 00:35:49;;;;;;;11.57;4.45;;;1.50;99.90;;;;;;5075486;28;20238;-70
2022/02/27 00:38:16;;;;;;;11.07;3.95;;;1.50;99.90;;;;;;5074993;28;20534;-69
2022/02/27 00:40:42;;;;;;;10.60;3.97;;;1.50;99.90;;;;;;5075265;28;20680;-70
2022/02/27 00:43:09;;;;;;;8.73;5.05;;;1.40;99.90;;;;;;5075730;28;20191;-69
2022/02/27 00:45:35;;;;;;;9.32;4.20;;;1.40;99.90;;;;;;5075309;28;20253;-69
2022/02/27 00:48:02;;;;;;;12.00;4.70;;;1.40;99.90;;;;;;5075697;28;20256;-70
2022/02/27 00:50:28;;;;;;;6.72;4.35;;;1.30;99.90;;;;;;5075632;28;20551;-70
2022/02/27 00:52:55;;;;;;;9.88;4.30;;;1.30;99.90;;;;;;5074869;28;20204;-69
2022/02/27 00:55:21;;;;;;;5.68;4.32;;;1.30;99.90;;;;;;5075562;28;20220;-70
2022/02/27 00:57:48;;;;;;;10.90;4.13;;;1.20;99.90;;;;;;5075371;28;20230;-70
2022/02/27 01:00:14;;;;;;;7.22;3.95;;;1.20;99.90;;;;;;5075523;28;20272;-70
2022/02/27 01:02:41;;;;;;;8.50;4.45;;;1.20;99.90;;;;;;5075384;28;20223;-71
2022/02/27 01:05:08;;;;;;;10.30;4.30;;;1.20;99.90;;;;;;5074966;28;20234;-70
2022/02/27 01:07:34;;;;;;;8.43;4.30;;;1.20;99.90;;;;;;5075227;28;20628;-70
2022/02/27 01:10:01;;;;;;;8.20;4.68;;;1.20;99.90;;;;;;5075426;28;20204;-70
2022/02/27 01:12:27;;;;;;;7.68;3.90;;;1.10;99.90;;;;;;5075332;28;20554;-70
2022/02/27 01:14:53;;;;;;;9.43;5.05;;;1.10;99.90;;;;;;5074889;28;20250;-70
2022/02/27 01:17:20;;;;;;;10.32;4.32;;;1.10;99.90;;;;;;5072700;28;20205;-70
2022/02/27 01:19:46;;;;;;;9.13;4.43;;;1.10;99.90;;;;;;5075626;28;20269;-70
2022/02/27 01:22:13;;;;;;;9.75;5.07;;;1.10;99.90;;;;;;5075790;28;20196;-70
2022/02/27 01:24:39;;;;;;;10.05;4.97;;;1.00;99.90;;;;;;5075554;28;20597;-70
2022/02/27 01:27:06;;;;;;;5.57;5.07;;;1.00;99.90;;;;;;5074897;28;20609;-70
2022/02/27 01:29:33;;;;;;;6.97;4.40;;;1.10;99.90;;;;;;5073816;28;20601;-70
2022/02/27 01:32:00;;;;;;;9.90;4.72;;;1.00;99.90;;;;;;5075073;28;20206;-70
2022/02/27 01:34:26;;;;;;;10.45;4.57;;;1.00;99.90;;;;;;5074526;28;20211;-70
2022/02/27 01:36:52;;;;;;;10.27;4.55;;;0.90;99.90;;;;;;5074875;28;20203;-70
2022/02/27 01:39:19;;;;;;;6.57;4.38;;;0.90;99.90;;;;;;5074679;28;20200;-70
2022/02/27 01:41:45;;;;;;;9.23;3.90;;;0.80;99.90;;;;;;5074870;28;20211;-72
2022/02/27 01:44:12;;;;;;;10.07;4.95;;;0.70;99.90;;;;;;5074465;28;20204;-69
2022/02/27 01:46:58;;;;;;;8.70;5.32;;;0.70;99.90;;;;;;5073061;28;20203;-69
2022/02/27 01:49:25;;;;;;;9.77;3.80;;;0.70;99.90;;;;;;5074831;28;20200;-71
2022/02/27 01:51:51;;;;;;;10.02;4.90;;;0.60;99.90;;;;;;5074646;28;20222;-69
2022/02/27 01:54:18;;;;;;;8.60;5.00;;;0.60;99.90;;;;;;5074582;28;20256;-70
2022/02/27 01:56:45;;;;;;;11.32;4.78;;;0.50;99.90;;;;;;5074331;28;20713;-71
2022/02/27 01:59:12;;;;;;;12.48;5.60;;;0.50;99.90;;;;;;5073218;28;20550;-71
2022/02/27 02:01:39;;;;;;;12.90;5.32;;;0.50;99.90;;;;;;5074321;28;20203;-69
2022/02/27 02:04:05;;;;;;;6.78;4.15;;;0.40;99.90;;;;;;5074179;28;20207;-71
2022/02/27 02:06:31;;;;;;;13.23;4.43;;;0.30;99.90;;;;;;5074387;28;20330;-71
2022/02/27 02:08:58;;;;;;;14.73;4.47;;;0.30;99.90;;;;;;5074466;28;20573;-71
2022/02/27 02:11:24;;;;;;;7.45;3.67;;;0.30;99.90;;;;;;5072638;28;20208;-71
2022/02/27 02:13:51;;;;;;;8.02;4.25;;;0.30;99.90;;;;;;5073369;28;20667;-70
2022/02/27 02:16:17;;;;;;;7.95;3.85;;;0.30;99.90;;;;;;5073340;28;20223;-70
2022/02/27 02:18:44;;;;;;;8.23;5.00;;;0.30;99.90;;;;;;5073485;28;20203;-70
2022/02/27 02:21:10;;;;;;;10.00;4.05;;;0.30;99.90;;;;;;5071973;28;20196;-70
2022/02/27 02:23:37;;;;;;;13.15;4.43;;;0.40;99.90;;;;;;5073606;28;20199;-71
2022/02/27 02:26:04;;;;;;;9.65;4.70;;;0.30;99.90;;;;;;5073168;28;20203;-70
2022/02/27 02:28:31;;;;;;;6.35;3.60;;;0.40;99.90;;;;;;5073043;28;20207;-70
2022/02/27 02:30:57;;;;;;;6.00;4.18;;;0.40;99.90;;;;;;5073108;28;20203;-71
2022/02/27 02:33:37;;;;;;;13.02;5.00;;;0.40;99.90;;;;;;5071831;28;20203;-71
2022/02/27 02:36:07;;;;;;;9.48;4.32;;;0.40;99.90;;;;;;5073383;28;20211;-71
2022/02/27 02:38:33;;;;;;;7.35;4.95;;;0.50;99.90;;;;;;5073451;28;20276;-69
2022/02/27 02:40:59;;;;;;;10.63;4.68;;;0.50;99.90;;;;;;5073173;28;20210;-69
2022/02/27 02:43:26;;;;;;;6.75;4.05;;;0.50;99.90;;;;;;5071797;28;20200;-69
2022/02/27 02:45:52;;;;;;;10.23;4.25;;;0.50;99.90;;;;;;5073256;28;20602;-70
2022/02/27 02:48:19;;;;;;;8.98;4.70;;;0.50;99.90;;;;;;5071850;28;20204;-70
2022/02/27 02:50:45;;;;;;;8.50;4.25;;;0.50;99.90;;;;;;5073864;28;20577;-70
2022/02/27 02:53:11;;;;;;;16.33;4.60;;;0.50;99.90;;;;;;5073274;28;20200;-70
2022/02/27 02:55:38;;;;;;;8.30;5.55;;;0.60;99.90;;;;;;5072917;28;20223;-70
2022/02/27 02:58:04;;;;;;;8.80;4.53;;;0.60;99.90;;;;;;5073107;28;20204;-70
2022/02/27 03:00:31;;;;;;;9.48;4.25;;;0.60;99.90;;;;;;5072744;28;20222;-70
2022/02/27 03:02:57;;;;;;;13.75;4.95;;;0.70;99.90;;;;;;5073102;28;20200;-70
2022/02/27 03:05:23;;;;;;;10.15;3.95;;;0.80;99.90;;;;;;5072523;28;20232;-70
2022/02/27 03:07:50;;;;;;;8.70;4.43;;;0.80;99.90;;;;;;5072768;28;20204;-70
2022/02/27 03:10:16;;;;;;;9.68;4.20;;;0.80;99.90;;;;;;5073008;28;20616;-70
2022/02/27 03:12:42;;;;;;;5.50;3.75;;;0.80;99.90;;;;;;5072910;28;20280;-70
2022/02/27 03:15:09;;;;;;;8.60;5.00;;;0.80;99.90;;;;;;5072899;28;20224;-70
2022/02/27 03:17:36;;;;;;;6.55;4.53;;;0.80;99.90;;;;;;5072640;28;20203;-70
2022/02/27 03:20:03;;;;;;;8.73;4.40;;;0.70;99.90;;;;;;5072628;28;20196;-70
2022/02/27 03:22:30;;;;;;;8.60;4.43;;;0.70;99.90;;;;;;5072500;28;20616;-70
2022/02/27 03:24:56;;;;;;;7.97;4.25;;;0.70;99.90;;;;;;5072413;28;20200;-70
2022/02/27 03:27:22;;;;;;;8.82;3.70;;;0.70;99.90;;;;;;5071522;28;20192;-70
2022/02/27 03:29:49;;;;;;;9.05;4.65;;;0.70;99.90;;;;;;5072792;28;20221;-70
2022/02/27 03:32:15;;;;;;;10.15;5.10;;;0.70;99.90;;;;;;5071782;28;20210;-70
2022/02/27 03:34:41;;;;;;;6.45;4.45;;;0.70;99.90;;;;;;5072435;28;20203;-70
2022/02/27 03:37:07;;;;;;;9.10;4.45;;;0.70;99.90;;;;;;5072485;28;20227;-70
2022/02/27 03:39:33;;;;;;;8.65;4.38;;;0.70;99.90;;;;;;5072788;28;20223;-70
2022/02/27 03:42:00;;;;;;;8.95;4.13;;;0.70;99.90;;;;;;5075199;28;20655;-70
2022/02/27 03:44:26;;;;;;;9.68;4.25;;;0.70;99.90;;;;;;5074954;28;20198;-70
2022/02/27 03:46:52;;;;;;;6.50;4.20;;;0.70;99.90;;;;;;5076009;28;20664;-70
2022/02/27 03:49:18;;;;;;;6.05;3.80;;;0.80;99.90;;;;;;5074556;28;20196;-70
2022/02/27 03:51:45;;;;;;;12.70;3.60;;;0.90;99.90;;;;;;5075961;28;20564;-70
2022/02/27 03:54:11;;;;;;;6.38;3.75;;;0.90;99.90;;;;;;5075972;28;20214;-71
2022/02/27 03:56:37;;;;;;;6.25;3.60;;;0.90;99.90;;;;;;5076151;28;20247;-71
2022/02/27 03:59:03;;;;;;;8.88;4.05;;;0.90;99.90;;;;;;5075918;28;20219;-71
2022/02/27 04:01:30;;;;;;;8.45;5.13;;;0.90;99.90;;;;;;5076059;28;20203;-71
2022/02/27 04:03:56;;;;;;;6.43;3.75;;;0.90;99.90;;;;;;5075934;28;20196;-70
2022/02/27 04:06:22;;;;;;;9.25;4.00;;;0.90;99.90;;;;;;5074283;28;20224;-71
2022/02/27 04:08:48;;;;;;;8.30;4.10;;;0.90;99.90;;;;;;5075846;28;20196;-70
2022/02/27 04:11:15;;;;;;;11.27;4.70;;;0.90;99.90;;;;;;5075529;28;20562;-70
2022/02/27 04:13:41;;;;;;;19.90;4.50;;;1.00;99.90;;;;;;5075539;28;20206;-69
2022/02/27 04:16:07;;;;;;;9.27;4.32;;;0.90;99.90;;;;;;5057494;28;20238;-69
2022/02/27 04:18:34;;;;;;;11.52;4.10;;;1.10;99.90;;;;;;5075336;28;20211;-69
2022/02/27 04:21:00;;;;;;;8.38;3.40;;;1.10;99.90;;;;;;5074099;28;20196;-69
2022/02/27 04:23:26;;;;;;;11.48;4.18;;;1.00;99.90;;;;;;5075443;28;20223;-69
2022/02/27 04:25:53;;;;;;;13.13;4.70;;;1.00;99.90;;;;;;5075538;28;20196;-69
2022/02/27 04:28:19;;;;;;;8.77;3.53;;;1.00;99.90;;;;;;5075197;28;20252;-69
2022/02/27 04:30:45;;;;;;;7.22;4.32;;;0.90;99.90;;;;;;5075255;28;20674;-69
2022/02/27 04:33:12;;;;;;;7.15;4.35;;;1.00;99.90;;;;;;5075529;28;20282;-69
2022/02/27 04:35:38;;;;;;;8.40;4.43;;;1.00;99.90;;;;;;5075374;28;20224;-69
2022/02/27 04:38:05;;;;;;;9.05;4.22;;;1.00;99.90;;;;;;5075751;28;20608;-69
2022/02/27 04:40:34;;;;;;;9.57;3.75;;;1.20;99.90;;;;;;5075346;28;20249;-69
2022/02/27 04:43:02;;;;;;;7.40;5.18;;;1.20;99.90;;;;;;5075306;28;20258;-69
2022/02/27 04:45:28;;;;;;;11.85;4.38;;;1.20;99.90;;;;;;5074970;28;20214;-69
2022/02/27 04:47:55;;;;;;;8.82;4.55;;;1.30;99.90;;;;;;5075262;28;20222;-69
2022/02/27 04:50:22;;;;;;;10.55;5.22;;;1.40;99.90;;;;;;5075195;28;20223;-69
2022/02/27 04:52:48;;;;;;;14.95;4.50;;;1.30;99.90;;;;;;5072428;28;20207;-69
2022/02/27 04:55:15;;;;;;;15.55;4.93;;;1.20;99.90;;;;;;5075056;28;20208;-70
2022/02/27 04:57:41;;;;;;;7.00;5.22;;;1.30;99.90;;;;;;5075303;28;20343;-69
2022/02/27 05:00:09;;;;;;;8.20;4.70;;;1.30;99.90;;;;;;5074904;28;20561;-70
2022/02/27 05:02:36;;;;;;;11.13;4.43;;;1.30;99.90;;;;;;5075140;28;20204;-71
2022/02/27 05:05:03;;;;;;;11.70;4.30;;;1.40;99.90;;;;;;5074550;28;20228;-70
2022/02/27 05:07:29;;;;;;;6.53;4.32;;;1.30;99.90;;;;;;5074040;28;20691;-70
2022/02/27 05:09:55;;;;;;;8.10;4.47;;;1.30;99.90;;;;;;5075532;28;20207;-70
2022/02/27 05:12:22;;;;;;;8.55;4.47;;;1.30;99.90;;;;;;5075371;28;20210;-70
2022/02/27 05:14:48;;;;;;;14.15;4.72;;;1.20;99.90;;;;;;5075736;28;20204;-70
2022/02/27 05:17:16;;;;;;;11.07;4.82;;;1.20;99.90;;;;;;5074471;28;20751;-70
2022/02/27 05:19:42;;;;;;;11.73;4.63;;;1.10;99.90;;;;;;5075255;28;20196;-71
2022/02/27 05:22:09;;;;;;;13.27;5.20;;;1.10;99.90;;;;;;5074675;28;20690;-70
2022/02/27 05:24:35;;;;;;;11.90;4.65;;;1.10;99.90;;;;;;5074017;28;20289;-71
2022/02/27 05:27:02;;;;;;;15.10;4.50;;;1.00;99.90;;;;;;5075751;28;20568;-70
2022/02/27 05:29:28;;;;;;;7.72;4.63;;;0.90;99.90;;;;;;5075057;28;20230;-71
2022/02/27 05:31:55;;;;;;;15.65;6.15;;;0.90;99.90;;;;;;5075034;28;20659;-70
2022/02/27 05:34:22;;;;;;;10.70;5.13;;;0.90;99.90;;;;;;5075682;28;20208;-70
2022/02/27 05:36:49;;;;;;;16.63;4.97;;;0.90;99.90;;;;;;5073166;28;20623;-69
2022/02/27 05:39:15;;;;;;;5.57;4.72;;;0.80;99.90;;;;;;5074838;28;20204;-70
2022/02/27 05:41:42;;;;;;;7.35;4.40;;;0.80;99.90;;;;;;5075118;28;20215;-69
2022/02/27 05:44:09;;;;;;;10.52;4.93;;;0.80;99.90;;;;;;5073684;28;20204;-69
2022/02/27 05:46:35;;;;;;;20.58;5.88;;;0.80;99.90;;;;;;5075261;28;20195;-70
2022/02/27 05:49:02;;;;;;;14.45;6.05;;;0.80;99.90;;;;;;5074679;28;20269;-70
2022/02/27 05:51:28;;;;;;;15.25;6.28;;;0.80;99.90;;;;;;5075386;28;20204;-69
2022/02/27 05:53:54;;;;;;;11.02;4.90;;;0.80;99.90;;;;;;5074695;28;20671;-70
2022/02/27 05:56:21;;;;;;;10.07;5.28;;;0.80;99.90;;;;;;5075104;28;20626;-70
2022/02/27 05:58:47;;;;;;;10.27;5.20;;;0.80;99.90;;;;;;5073638;28;20208;-70
2022/02/27 06:01:14;;;;;;;8.98;4.65;;;0.80;99.90;;;;;;5074477;28;20592;-70
2022/02/27 06:03:40;;;;;;;14.73;5.72;;;0.90;99.90;;;;;;5074482;28;20196;-70
2022/02/27 06:06:07;;;;;;;10.02;5.95;;;0.80;99.90;;;;;;5074398;28;20273;-70
2022/02/27 06:08:33;;;;;;;12.27;4.90;;;0.90;99.90;;;;;;5074257;28;20207;-70
2022/02/27 06:11:00;;;;;;;9.40;5.70;;;0.90;99.90;;;;;;5073405;28;20675;-70
2022/02/27 06:13:26;;;;;;;11.20;6.28;;;0.90;99.90;;;;;;5074395;28;20207;-71
2022/02/27 06:15:52;;;;;;;9.27;5.47;;;0.90;99.90;;;;;;5074490;28;20221;-70
2022/02/27 06:18:19;;;;;;;13.77;5.85;;;0.90;99.90;;;;;;5074609;28;20202;-70
2022/02/27 06:20:45;;;;;;;12.70;6.40;;;0.90;99.90;;;;;;5074576;28;20200;-71
2022/02/27 06:23:12;;;;;;;8.00;4.80;;;0.90;99.90;;;;;;5073114;28;20196;-70
2022/02/27 06:25:38;;;;;;;14.30;6.32;;;0.90;99.90;;;;;;5074349;28;20697;-70
2022/02/27 06:28:05;;;;;;;8.55;5.13;;;0.90;99.90;;;;;;5072963;28;20208;-70
2022/02/27 06:30:31;;;;;;;7.32;4.93;;;0.80;99.90;;;;;;5074724;28;20200;-70
2022/02/27 06:32:58;;;;;;;7.47;5.10;;;0.80;99.90;;;;;;5074651;28;20207;-70
2022/02/27 06:35:25;;;;;;;7.80;6.00;;;0.80;99.90;;;;;;5073877;28;20200;-70
2022/02/27 06:37:55;;;;;;;13.85;6.25;;;0.80;99.90;;;;;;5074069;28;20219;-70
2022/02/27 06:40:22;;;;;;;12.05;5.10;;;0.80;99.90;;;;;;5073447;28;20180;-70
2022/02/27 06:42:49;;;;;;;11.52;6.97;;;0.80;99.90;;;;;;5073343;28;20261;-70
2022/02/27 06:45:16;;;;;;;11.98;6.47;;;0.80;99.90;;;;;;5072749;28;20620;-70
2022/02/27 06:47:43;;;;;;;9.18;5.65;;;0.80;99.90;;;;;;5072794;28;20206;-70
2022/02/27 06:50:11;;;;;;;8.18;5.80;;;0.80;99.90;;;;;;5073989;28;20203;-70
2022/02/27 06:52:38;;;;;;;14.10;6.32;;;0.90;99.90;;;;;;5074072;28;20285;-71
2022/02/27 06:55:05;;;;;;;14.75;5.82;;;0.90;99.90;;;;;;5073917;28;20244;-70
2022/02/27 06:57:31;;;;;;;13.38;4.85;;;0.90;99.90;;;;;;5073899;28;20216;-70
2022/02/27 06:59:58;;;;;;;8.05;5.05;;;1.00;99.90;;;;;;5074467;28;20204;-70
2022/02/27 07:02:24;;;;;;;13.77;6.28;;;1.00;99.90;;;;;;5072535;28;20666;-70
2022/02/27 07:04:51;;;;;;;16.38;6.55;;;1.00;99.90;;;;;;5072335;28;20655;-70
2022/02/27 07:07:17;;;;;;;12.38;4.85;;;1.10;99.90;;;;;;5072682;28;20289;-70
2022/02/27 07:09:44;;;;;;;13.20;6.20;;;1.10;99.90;;;;;;5074532;28;20569;-70
2022/02/27 07:12:10;;;;;;;9.77;5.60;;;1.10;99.90;;;;;;5074023;28;20204;-71
2022/02/27 07:14:38;;;;;;;14.85;6.15;;;1.20;99.90;;;;;;5073985;28;20200;-71
2022/02/27 07:17:05;;;;;;;13.27;5.50;;;1.20;99.90;;;;;;5075776;28;20243;-70
2022/02/27 07:19:32;;;;;;;10.60;5.68;;;1.30;99.90;;;;;;5076505;28;20249;-70
2022/02/27 07:21:58;;;;;;;13.93;7.20;;;1.30;99.90;;;;;;5077363;28;20203;-70
2022/02/27 07:24:25;;;;;;;11.05;5.65;;;1.30;99.90;;;;;;5077467;28;20200;-70
2022/02/27 07:26:51;;;;;;;11.23;5.75;;;1.40;99.90;;;;;;5076625;28;20609;-70
2022/02/27 07:29:18;;;;;;;20.42;6.80;;;1.40;99.90;;;;;;5077859;28;20218;-70
2022/02/27 07:31:44;;;;;;;12.57;6.20;;;1.40;99.90;;;;;;5078001;28;20260;-70
2022/02/27 07:34:12;;;;;;;16.38;6.32;;;1.50;99.90;;;;;;5076433;28;20204;-70
2022/02/27 07:36:39;;;;;;;15.57;6.10;;;1.50;99.90;;;;;;5076219;28;20230;-71
2022/02/27 07:39:08;;;;;;;9.45;6.18;;;1.60;99.90;;;;;;5077985;28;20207;-70
2022/02/27 07:41:36;;;;;;;13.25;6.53;;;1.70;99.90;;;;;;5059798;28;20200;-70
2022/02/27 07:44:03;;;;;;;13.52;7.05;;;1.70;99.90;;;;;;5076872;28;20268;-70
2022/02/27 07:46:29;;;;;;;10.38;6.78;;;1.80;99.90;;;;;;5076904;28;20200;-71
2022/02/27 07:48:56;;;;;;;9.15;7.00;;;1.90;99.90;;;;;;5076999;28;20562;-70
2022/02/27 07:51:22;;;;;;;14.25;6.50;;;2.00;99.90;;;;;;5077274;28;20560;-70
2022/02/27 07:53:49;;;;;;;10.55;6.43;;;2.00;99.90;;;;;;5076853;28;20249;-71
2022/02/27 07:56:15;;;;;;;21.10;10.82;;;2.10;99.90;;;;;;5075328;28;20691;-70
2022/02/27 07:58:41;;;;;;;15.80;5.75;;;2.10;99.90;;;;;;5076718;28;20204;-70
2022/02/27 08:01:08;;;;;;;11.20;5.93;;;2.20;99.90;;;;;;5075339;28;20204;-70
2022/02/27 08:03:34;;;;;;;12.07;7.10;;;2.20;99.90;;;;;;5076139;28;20200;-71
2022/02/27 08:06:00;;;;;;;12.00;5.78;;;2.30;99.90;;;;;;5076497;28;20232;-71
2022/02/27 08:08:27;;;;;;;10.25;6.80;;;2.40;99.90;;;;;;5075580;28;20204;-71
2022/02/27 08:10:53;;;;;;;13.73;7.10;;;2.40;99.90;;;;;;5077014;28;20253;-71
2022/02/27 08:13:20;;;;;;;14.07;7.90;;;2.50;99.90;;;;;;5076608;28;20568;-70
2022/02/27 08:15:46;;;;;;;13.30;6.57;;;2.60;99.90;;;;;;5076748;28;20200;-70
2022/02/27 08:18:13;;;;;;;8.82;5.85;;;2.70;99.90;;;;;;5076643;28;20215;-71
2022/02/27 08:20:39;;;;;;;8.73;6.28;;;2.80;99.90;;;;;;5075450;28;20202;-70
2022/02/27 08:23:05;;;;;;;10.13;5.57;;;2.90;99.90;;;;;;5076833;28;20242;-70
2022/02/27 08:25:32;;;;;;;13.25;6.25;;;3.10;99.90;;;;;;5076418;28;20214;-71
2022/02/27 08:27:58;;;;;;;12.18;6.60;;;3.10;99.90;;;;;;5075179;28;20200;-71
2022/02/27 08:30:25;;;;;;;13.15;7.13;;;3.20;99.90;;;;;;5076771;28;20203;-70
2022/02/27 08:32:51;;;;;;;6.20;5.55;;;3.20;99.90;;;;;;5074660;28;20208;-70
2022/02/27 08:35:18;;;;;;;12.75;6.03;;;3.40;99.90;;;;;;5076641;28;20211;-71
2022/02/27 08:37:45;;;;;;;9.23;6.30;;;3.40;99.90;;;;;;5076713;28;20223;-71
2022/02/27 08:40:12;;;;;;;9.32;6.13;;;3.50;99.90;;;;;;5076400;28;20227;-71
2022/02/27 08:42:38;;;;;;;10.07;6.30;;;3.60;99.90;;;;;;5076067;28;20211;-71
2022/02/27 08:45:06;;;;;;;11.02;5.75;;;3.60;99.90;;;;;;5076352;28;20261;-70
2022/02/27 08:47:32;;;;;;;10.73;6.50;;;3.70;99.90;;;;;;5076162;28;20655;-70
2022/02/27 08:49:59;;;;;;;15.40;6.60;;;3.90;99.90;;;;;;5076505;28;20200;-70
2022/02/27 08:52:25;;;;;;;7.25;6.05;;;4.00;99.90;;;;;;5076229;28;20200;-70
2022/02/27 08:54:52;;;;;;;7.70;6.22;;;4.10;99.90;;;;;;5075734;28;20203;-70
2022/02/27 08:57:18;;;;;;;12.82;7.28;;;4.10;99.90;;;;;;5075709;28;20222;-69
2022/02/27 08:59:45;;;;;;;12.40;7.13;;;4.20;99.90;;;;;;5074640;28;20199;-71
2022/02/27 09:02:11;;;;;;;15.65;7.18;;;4.30;99.90;;;;;;5075725;28;20674;-70
2022/02/27 09:04:38;;;;;;;16.38;6.82;;;4.30;99.90;;;;;;5075911;28;20232;-70
2022/02/27 09:07:05;;;;;;;10.63;6.55;;;4.30;99.90;;;;;;5075651;28;20226;-70
2022/02/27 09:09:32;;;;;;;8.57;6.57;;;4.50;99.90;;;;;;5075811;28;20694;-69
2022/02/27 09:11:58;;;;;;;11.57;6.00;;;4.60;99.90;;;;;;5076492;28;20202;-71
2022/02/27 09:14:25;;;;;;;6.80;5.18;;;4.80;99.90;;;;;;5075453;28;20199;-70
2022/02/27 09:16:52;;;;;;;9.40;7.30;;;4.80;99.90;;;;;;5075102;28;20691;-70
2022/02/27 09:19:18;;;;;;;10.32;6.03;;;4.70;99.90;;;;;;5075255;28;20527;-70
2022/02/27 09:21:44;;;;;;;10.55;5.75;;;4.90;99.90;;;;;;5057380;28;20199;-70
2022/02/27 09:24:11;;;;;;;15.38;6.30;;;5.00;99.90;;;;;;5075640;28;20196;-71
2022/02/27 09:26:38;;;;;;;18.23;6.20;;;5.00;99.90;;;;;;5075560;28;20203;-71
2022/02/27 09:29:05;;;;;;;9.80;5.55;;;5.00;99.90;;;;;;5074016;28;20215;-71
2022/02/27 09:31:31;;;;;;;11.57;5.80;;;5.20;99.90;;;;;;5076083;28;20207;-70
2022/02/27 09:33:57;;;;;;;7.07;6.38;;;5.40;99.90;;;;;;5075100;28;20203;-71
2022/02/27 09:36:26;;;;;;;7.65;5.78;;;5.40;99.90;;;;;;5075838;28;20208;-71
2022/02/27 09:38:52;;;;;;;7.20;5.88;;;5.50;99.90;;;;;;5073833;28;20196;-71
2022/02/27 09:41:19;;;;;;;7.85;6.03;;;5.50;99.90;;;;;;5075818;28;20204;-71
2022/02/27 09:43:52;;;;;;;7.63;5.10;;;5.60;99.90;;;;;;5075365;28;20631;-71
2022/02/27 09:46:23;;;;;;;9.77;6.45;;;5.60;99.90;;;;;;5075306;28;20536;-71
2022/02/27 09:48:49;;;;;;;8.07;5.90;;;5.80;99.90;;;;;;5075227;28;20605;-71
2022/02/27 09:51:16;;;;;;;6.30;5.70;;;5.80;99.90;;;;;;5075522;28;20207;-73
2022/02/27 09:53:43;;;;;;;8.10;5.63;;;5.80;99.90;;;;;;5075175;28;20546;-71
2022/02/27 09:56:10;;;;;;;8.60;6.47;;;6.00;99.90;;;;;;5075479;28;20192;-71
2022/02/27 09:58:37;;;;;;;11.20;5.82;;;6.00;99.90;;;;;;5074679;28;20235;-71
2022/02/27 10:01:05;;;;;;;8.45;5.43;;;6.10;99.90;;;;;;5074763;28;20210;-71
2022/02/27 10:03:33;;;;;;;10.60;6.20;;;6.10;99.90;;;;;;5074775;28;20204;-71
2022/02/27 10:06:08;;;;;;;5.85;5.25;;;6.20;99.90;;;;;;5074758;28;20224;-70
2022/02/27 10:08:40;;;;;;;8.30;6.30;;;6.30;99.90;;;;;;5075616;28;20643;-70
2022/02/27 10:11:10;;;;;;;7.70;6.60;;;6.50;99.90;;;;;;5074821;28;20276;-69
2022/02/27 10:13:45;;;;;;;8.75;5.90;;;6.60;99.90;;;;;;5075109;28;20196;-71
2022/02/27 10:16:15;;;;;;;6.28;5.68;;;6.60;99.90;;;;;;5076420;28;20180;-71
2022/02/27 10:18:45;;;;;;;7.10;5.47;;;6.70;99.90;;;;;;5076024;28;20215;-71
2022/02/27 10:21:29;;;;;;;16.38;6.20;;;6.70;99.90;;;;;;5076092;28;20196;-71
2022/02/27 10:24:08;;;;;;;6.75;5.35;;;6.70;99.90;;;;;;5074823;28;20184;-71
2022/02/27 10:26:37;;;;;;;6.53;5.60;;;6.90;99.90;;;;;;5075588;28;20203;-70
2022/02/27 10:29:30;;;;;;;6.85;5.85;;;6.90;99.90;;;;;;5075492;28;20203;-70
2022/02/27 10:31:57;;;;;;;10.43;5.80;;;7.10;99.90;;;;;;5073471;28;20200;-71
2022/02/27 10:34:37;;;;;;;7.55;5.78;;;7.00;99.90;;;;;;5075345;28;20192;-71
2022/02/27 10:37:12;;;;;;;6.55;5.97;;;7.20;99.90;;;;;;5074571;28;20230;-71
2022/02/27 10:39:46;;;;;;;5.53;4.97;;;7.20;99.90;;;;;;5075002;28;20722;-71
2022/02/27 10:42:17;;;;;;;7.53;5.75;;;7.20;99.90;;;;;;5074882;28;20184;-71
2022/02/27 10:44:51;;;;;;;6.47;5.88;;;7.40;99.90;;;;;;5075085;28;20200;-71
2022/02/27 10:47:23;;;;;;;5.65;5.25;;;7.30;99.90;;;;;;5075032;28;20198;-71
2022/02/27 10:49:52;;;;;;;7.88;5.85;;;7.40;99.90;;;;;;5074767;28;20241;-75
2022/02/27 10:52:24;;;;;;;7.85;5.57;;;7.50;99.90;;;;;;5074842;28;20207;-70
2022/02/27 10:54:56;;;;;;;10.38;6.25;;;7.60;99.90;;;;;;5075171;28;20184;-72
2022/02/27 10:57:29;;;;;;;6.40;5.90;;;7.60;99.90;;;;;;5074701;28;20246;-70
2022/02/27 11:00:00;;;;;;;8.30;6.40;;;7.60;99.90;;;;;;5074385;28;20198;-70
2022/02/27 11:02:28;;;;;;;8.48;6.75;;;7.50;99.90;;;;;;5074608;28;20187;-71
2022/02/27 11:04:56;;;;;;;7.72;5.65;;;7.70;99.90;;;;;;5075201;28;20235;-71
2022/02/27 11:07:23;;;;;;;7.20;6.60;;;7.80;99.90;;;;;;5073983;28;20235;-69
2022/02/27 11:09:49;;;;;;;8.98;7.10;;;7.90;99.90;;;;;;5075667;28;20204;-69
2022/02/27 11:12:16;;;;;;;14.82;8.13;;;8.30;99.90;;;;;;5074601;28;20256;-69
2022/02/27 11:14:45;;;;;;;7.25;6.50;;;8.70;99.90;;;;;;5072709;28;20211;-70
2022/02/27 11:17:12;;;;;;;7.90;7.30;;;9.30;99.90;;;;;;5073584;28;20265;-70
2022/02/27 11:19:39;;;;;;;7.93;7.15;;;9.30;99.90;;;;;;5073720;28;20740;-69
2022/02/27 11:22:06;;;;;;;9.57;7.95;;;9.20;99.90;;;;;;5074707;28;20204;-72
2022/02/27 11:24:36;;;;;;;8.15;7.60;;;9.40;99.90;;;;;;5074147;28;20208;-70
2022/02/27 11:27:06;;;;;;;9.30;8.48;;;9.10;99.90;;;;;;5074898;28;20211;-71
2022/02/27 11:29:33;;;;;;;9.38;8.57;;;8.90;99.90;;;;;;5074458;28;20204;-71
2022/02/27 11:32:00;;;;;;;8.52;7.68;;;8.90;99.90;;;;;;5074563;28;20200;-71
2022/02/27 11:34:29;;;;;;;7.90;7.43;;;8.90;99.90;;;;;;5073413;28;20211;-71
2022/02/27 11:36:56;;;;;;;8.30;7.75;;;8.70;99.90;;;;;;5075005;28;20223;-70
2022/02/27 11:42:07;;;;;;;9.18;8.32;;;8.90;99.90;;;;;;5075142;28;20188;-70
2022/02/27 11:44:36;;;;;;;9.88;9.10;;;9.50;99.90;;;;;;5074331;28;20203;-71
2022/02/27 11:47:10;;;;;;;9.25;7.60;;;9.70;99.90;;;;;;5074101;28;20612;-71
2022/02/27 11:49:42;;;;;;;9.48;8.23;;;9.70;99.90;;;;;;5074927;28;20194;-70
2022/02/27 11:52:09;;;;;;;8.88;8.38;;;9.70;99.90;;;;;;5073339;28;20203;-70
2022/02/27 11:54:37;;;;;;;9.70;8.80;;;10.10;99.90;;;;;;5074635;28;20204;-70
2022/02/27 11:57:26;;;;;;;10.60;8.70;;;10.00;99.90;;;;;;5074300;28;20650;-70
2022/02/27 12:00:11;;;;;;;8.55;7.85;;;10.00;99.90;;;;;;5074874;28;20192;-70
2022/02/27 12:02:44;;;;;;;9.13;8.63;;;10.50;99.90;;;;;;5076572;28;20204;-70
2022/02/27 12:05:14;;;;;;;9.55;8.95;;;10.40;99.90;;;;;;5078069;28;20231;-70
2022/02/27 12:08:05;;;;;;;9.60;8.98;;;10.50;99.90;;;;;;5078295;28;20230;-70
2022/02/27 12:10:44;;;;;;;10.05;9.25;;;10.60;99.90;;;;;;5077089;28;20620;-70
2022/02/27 12:13:28;;;;;;;9.77;9.10;;;10.30;99.90;;;;;;5076852;28;20204;-71
2022/02/27 12:16:03;;;;;;;9.60;8.97;;;10.80;99.90;;;;;;5076462;28;20593;-71
2022/02/27 12:18:30;;;;;;;9.47;8.87;;;10.70;99.90;;;;;;5076048;28;20994;-71
2022/02/27 12:20:59;;;;;;;9.80;8.83;;;11.40;99.90;;;;;;5076295;28;20943;-71
2022/02/27 12:23:31;;;;;;;9.48;8.93;;;11.00;99.90;;;;;;5076491;28;20619;-71
2022/02/27 12:26:01;;;;;;;8.97;8.10;;;10.70;99.90;;;;;;5075114;28;20208;-71
2022/02/27 12:28:47;;;;;;;9.20;8.50;;;10.70;99.90;;;;;;5076658;28;21157;-71
2022/02/27 12:31:17;;;;;;;8.80;8.30;;;10.50;99.90;;;;;;5076575;28;20767;-71
2022/02/27 12:33:44;;;;;;;9.23;8.70;;;11.40;99.90;;;;;;5076405;28;20613;-71
2022/02/27 12:36:10;;;;;;;9.73;9.03;;;11.40;99.90;;;;;;5076415;28;20616;-71
2022/02/27 12:38:37;;;;;;;9.60;8.70;;;11.30;99.90;;;;;;5075848;28;20657;-71
2022/02/27 12:41:04;;;;;;;9.60;9.10;;;11.00;99.90;;;;;;5075761;28;20610;-71
2022/02/27 12:43:31;;;;;;;8.90;8.30;;;10.90;99.90;;;;;;5075137;28;20617;-72
2022/02/27 12:45:57;;;;;;;9.63;8.93;;;10.90;99.90;;;;;;5076112;28;20605;-71
2022/02/27 12:50:11;;;;;;;9.40;8.80;;;10.90;99.90;;;;;;5076250;28;20527;-71
2022/02/27 12:51:13;;;;;;;8.95;8.23;;;11.20;99.90;;;;;;5075835;28;20184;-71
2022/02/27 12:53:40;;;;;;;7.93;7.53;;;11.20;99.90;;;;;;5074688;28;20211;-70
2022/02/27 12:56:07;;;;;;;8.85;8.35;;;11.20;99.90;;;;;;5075984;28;20200;-71
2022/02/27 12:58:43;;;;;;;9.80;9.00;;;10.80;99.90;;;;;;5075671;28;20272;-70